createdAt,value
2022-09-10T00:01:51.197Z,12.89
2022-09-10T00:04:17.901Z,12.88
2022-09-10T00:06:44.942Z,12.85
2022-09-10T00:09:13.577Z,12.84
2022-09-10T00:11:41.715Z,12.78
2022-09-10T00:14:12.060Z,12.80
2022-09-10T00:16:38.737Z,12.78
2022-09-10T00:19:06.606Z,12.72
2022-09-10T00:21:34.688Z,12.67
2022-09-10T00:24:02.824Z,12.66
2022-09-10T00:26:35.335Z,12.61
2022-09-10T00:29:02.300Z,12.58
2022-09-10T00:31:30.563Z,12.55
2022-09-10T00:33:58.541Z,12.51
2022-09-10T00:36:29.460Z,12.45
2022-09-10T00:39:00.268Z,12.41
2022-09-10T00:41:27.062Z,12.42
2022-09-10T00:43:58.326Z,12.43
2022-09-10T00:47:04.205Z,12.44
2022-09-10T00:49:42.494Z,12.43
2022-09-10T00:52:09.885Z,12.48
2022-09-10T00:54:38.961Z,12.46
2022-09-10T00:57:11.437Z,12.43
2022-09-10T00:59:46.129Z,12.41
2022-09-10T01:02:12.849Z,12.38
2022-09-10T01:04:40.249Z,12.39
2022-09-10T01:07:09.872Z,12.38
2022-09-10T01:09:38.604Z,12.31
2022-09-10T01:12:11.077Z,12.27
2022-09-10T01:14:59.397Z,12.19
2022-09-10T01:17:29.789Z,12.18
2022-09-10T01:20:27.070Z,12.15
2022-09-10T01:23:08.825Z,12.10
2022-09-10T01:25:43.473Z,12.07
2022-09-10T01:28:25.147Z,12.06
2022-09-10T01:30:58.142Z,12.00
2022-09-10T01:33:38.004Z,12.00
2022-09-10T01:36:16.752Z,11.99
2022-09-10T01:38:43.539Z,11.98
2022-09-10T01:41:10.484Z,11.99
2022-09-10T01:43:37.629Z,11.98
2022-09-10T01:46:29.970Z,11.97
2022-09-10T01:49:05.470Z,11.95
2022-09-10T01:51:50.532Z,11.94
2022-09-10T01:54:40.154Z,11.95
2022-09-10T01:57:18.236Z,11.88
2022-09-10T02:00:02.457Z,11.85
2022-09-10T02:02:52.902Z,11.82
2022-09-10T02:05:22.880Z,11.76
2022-09-10T02:07:55.909Z,11.78
2022-09-10T02:10:23.701Z,11.78
2022-09-10T02:12:50.536Z,11.75
2022-09-10T02:15:19.206Z,11.68
2022-09-10T02:17:47.189Z,11.62
2022-09-10T02:20:14.794Z,11.64
2022-09-10T02:22:51.206Z,11.58
2022-09-10T02:25:18.257Z,11.56
2022-09-10T02:27:45.001Z,11.59
2022-09-10T02:30:12.073Z,11.61
2022-09-10T02:32:38.725Z,11.67
2022-09-10T02:35:05.779Z,11.59
2022-09-10T02:37:32.370Z,11.57
2022-09-10T02:39:59.475Z,11.56
2022-09-10T02:42:27.606Z,11.53
2022-09-10T02:44:54.208Z,11.50
2022-09-10T02:47:20.916Z,11.48
2022-09-10T02:49:47.575Z,11.45
2022-09-10T02:52:14.312Z,11.47
2022-09-10T02:54:40.940Z,11.45
2022-09-10T02:57:07.841Z,11.44
2022-09-10T02:59:34.646Z,11.42
2022-09-10T03:02:01.322Z,11.40
2022-09-10T03:04:28.013Z,11.40
2022-09-10T03:06:55.065Z,11.38
2022-09-10T03:09:22.700Z,11.38
2022-09-10T03:11:50.345Z,11.33
2022-09-10T03:14:20.398Z,11.32
2022-09-10T03:16:48.054Z,11.29
2022-09-10T03:19:15.818Z,11.25
2022-09-10T03:21:42.813Z,11.24
2022-09-10T03:24:10.429Z,11.24
2022-09-10T03:26:37.546Z,11.25
2022-09-10T03:29:04.698Z,11.25
2022-09-10T03:31:31.306Z,11.20
2022-09-10T03:33:58.380Z,11.21
2022-09-10T03:36:25.274Z,11.20
2022-09-10T03:38:51.865Z,11.16
2022-09-10T03:41:18.612Z,11.18
2022-09-10T03:43:45.220Z,11.18
2022-09-10T03:46:12.177Z,11.11
2022-09-10T03:48:39.703Z,11.08
2022-09-10T03:51:06.582Z,11.08
2022-09-10T03:53:33.469Z,11.08
2022-09-10T03:56:00.112Z,11.04
2022-09-10T03:58:26.841Z,10.98
2022-09-10T04:00:53.627Z,11.00
2022-09-10T04:03:20.302Z,10.95
2022-09-10T04:05:47.289Z,10.93
2022-09-10T04:08:14.969Z,10.88
2022-09-10T04:10:42.610Z,10.87
2022-09-10T04:13:09.409Z,10.85
2022-09-10T04:15:37.451Z,10.85
2022-09-10T04:18:04.961Z,10.86
2022-09-10T04:20:31.684Z,10.81
2022-09-10T04:22:58.782Z,10.80
2022-09-10T04:25:25.395Z,10.85
2022-09-10T04:27:52.426Z,10.90
2022-09-10T04:30:19.581Z,10.87
2022-09-10T04:32:46.912Z,10.90
2022-09-10T04:35:15.510Z,10.93
2022-09-10T04:37:43.198Z,10.92
2022-09-10T04:40:10.886Z,10.94
2022-09-10T04:42:38.241Z,10.96
2022-09-10T04:45:05.900Z,10.89
2022-09-10T04:47:33.203Z,10.82
2022-09-10T04:49:59.790Z,10.87
2022-09-10T04:52:27.954Z,10.87
2022-09-10T04:54:54.590Z,10.93
2022-09-10T04:57:22.178Z,10.89
2022-09-10T04:59:48.750Z,10.90
2022-09-10T05:02:15.471Z,10.95
2022-09-10T05:04:42.164Z,10.98
2022-09-10T05:07:08.777Z,11.01
2022-09-10T05:09:35.508Z,11.08
2022-09-10T05:12:02.987Z,11.13
2022-09-10T05:14:30.087Z,11.17
2022-09-10T05:16:56.928Z,11.24
2022-09-10T05:19:23.558Z,11.29
2022-09-10T05:21:50.144Z,11.29
2022-09-10T05:24:17.061Z,11.39
2022-09-10T05:26:44.206Z,11.43
2022-09-10T05:29:14.200Z,11.53
2022-09-10T05:31:41.228Z,11.67
2022-09-10T05:34:08.500Z,11.78
2022-09-10T05:36:35.581Z,11.84
2022-09-10T05:39:03.773Z,12.03
2022-09-10T05:41:31.204Z,12.24
2022-09-10T05:43:58.390Z,12.35
2022-09-10T05:46:25.484Z,12.53
2022-09-10T05:48:54.297Z,12.72
2022-09-10T05:51:22.106Z,12.86
2022-09-10T05:53:49.995Z,13.03
2022-09-10T05:56:16.852Z,13.07
2022-09-10T05:58:45.160Z,13.22
2022-09-10T06:01:12.066Z,13.39
2022-09-10T06:03:39.281Z,13.58
2022-09-10T06:06:06.269Z,13.71
2022-09-10T06:08:33.200Z,13.95
2022-09-10T06:11:02.653Z,13.92
2022-09-10T06:13:29.279Z,14.20
2022-09-10T06:15:55.949Z,14.17
2022-09-10T06:18:22.534Z,14.23
2022-09-10T06:20:49.388Z,14.24
2022-09-10T06:23:17.051Z,14.49
2022-09-10T06:25:44.658Z,14.57
2022-09-10T06:28:12.631Z,14.70
2022-09-10T06:30:39.612Z,14.90
2022-09-10T06:33:06.226Z,14.99
2022-09-10T06:35:33.325Z,15.17
2022-09-10T06:37:59.983Z,15.17
2022-09-10T06:40:29.675Z,15.47
2022-09-10T06:42:56.413Z,15.63
2022-09-10T06:45:24.138Z,15.58
2022-09-10T06:50:37.652Z,15.77
2022-09-10T06:53:04.325Z,15.91
2022-09-10T06:55:31.064Z,15.71
2022-09-10T06:57:59.832Z,16.11
2022-09-10T07:00:26.464Z,16.27
2022-09-10T07:02:53.113Z,16.55
2022-09-10T07:05:19.754Z,16.73
2022-09-10T07:07:46.475Z,16.93
2022-09-10T07:10:13.081Z,16.96
2022-09-10T07:12:39.776Z,16.99
2022-09-10T07:15:06.895Z,16.88
2022-09-10T07:17:35.967Z,17.01
2022-09-10T07:20:02.991Z,17.33
2022-09-10T07:22:29.574Z,17.44
2022-09-10T07:24:56.227Z,17.59
2022-09-10T07:27:22.985Z,17.57
2022-09-10T07:29:49.662Z,17.50
2022-09-10T07:32:16.302Z,17.92
2022-09-10T07:34:43.215Z,17.93
2022-09-10T07:37:09.989Z,18.07
2022-09-10T07:39:36.998Z,17.81
2022-09-10T07:42:03.786Z,17.97
2022-09-10T07:44:30.386Z,18.34
2022-09-10T07:46:56.968Z,18.56
2022-09-10T07:49:23.606Z,18.48
2022-09-10T07:51:57.667Z,18.75
2022-09-10T07:54:28.450Z,18.52
2022-09-10T07:56:55.130Z,18.78
2022-09-10T07:59:21.793Z,18.75
2022-09-10T08:01:48.431Z,18.94
2022-09-10T08:04:15.061Z,19.45
2022-09-10T08:06:41.996Z,19.65
2022-09-10T08:09:08.964Z,19.38
2022-09-10T08:11:35.549Z,19.32
2022-09-10T08:14:02.164Z,19.40
2022-09-10T08:16:29.027Z,19.89
2022-09-10T08:18:57.311Z,19.43
2022-09-10T08:21:25.008Z,20.14
2022-09-10T08:23:56.295Z,20.23
2022-09-10T08:26:27.513Z,20.19
2022-09-10T08:28:56.242Z,20.03
2022-09-10T08:31:24.856Z,20.23
2022-09-10T08:33:53.725Z,20.57
2022-09-10T08:36:24.296Z,20.98
2022-09-10T08:38:51.208Z,21.05
2022-09-10T08:41:31.325Z,20.91
2022-09-10T08:44:16.194Z,21.36
2022-09-10T08:46:55.627Z,21.14
2022-09-10T08:50:00.556Z,21.03
2022-09-10T08:52:30.110Z,21.28
2022-09-10T08:55:04.907Z,21.50
2022-09-10T08:57:38.789Z,21.58
2022-09-10T09:00:10.989Z,22.06
2022-09-10T09:03:11.537Z,21.79
2022-09-10T09:05:47.834Z,22.13
2022-09-10T09:08:19.182Z,21.59
2022-09-10T09:10:49.985Z,21.98
2022-09-10T09:13:57.876Z,22.14
2022-09-10T09:17:06.009Z,21.88
2022-09-10T09:19:52.376Z,21.93
2022-09-10T09:22:24.118Z,22.07
2022-09-10T09:25:00.805Z,22.31
2022-09-10T09:27:33.834Z,22.47
2022-09-10T09:30:04.249Z,22.21
2022-09-10T09:32:34.814Z,21.48
2022-09-10T09:35:16.797Z,21.56
2022-09-10T09:37:49.098Z,22.51
2022-09-10T09:40:21.416Z,22.44
2022-09-10T09:43:16.224Z,22.83
2022-09-10T09:45:44.041Z,22.61
2022-09-10T09:48:13.706Z,21.61
2022-09-10T09:50:42.998Z,21.48
2022-09-10T09:53:22.602Z,21.13
2022-09-10T09:56:00.824Z,20.65
2022-09-10T09:58:33.722Z,20.47
2022-09-10T10:01:06.972Z,20.27
2022-09-10T10:03:48.821Z,20.21
2022-09-10T10:06:17.122Z,20.54
2022-09-10T10:08:54.359Z,21.46
2022-09-10T10:11:22.435Z,21.85
2022-09-10T10:13:52.998Z,22.42
2022-09-10T10:16:35.786Z,22.72
2022-09-10T10:19:02.953Z,23.16
2022-09-10T10:21:32.419Z,22.97
2022-09-10T10:23:59.178Z,22.84
2022-09-10T10:26:34.972Z,23.15
2022-09-10T10:29:07.445Z,23.28
2022-09-10T10:31:41.386Z,22.61
2022-09-10T10:34:17.024Z,22.81
2022-09-10T10:37:09.725Z,23.00
2022-09-10T10:39:52.382Z,22.16
2022-09-10T10:42:32.174Z,22.82
2022-09-10T10:45:25.888Z,22.93
2022-09-10T10:48:16.213Z,22.92
2022-09-10T10:51:05.183Z,22.98
2022-09-10T10:53:47.043Z,23.53
2022-09-10T10:56:43.017Z,24.06
2022-09-10T10:59:18.193Z,23.92
2022-09-10T11:02:01.272Z,23.46
2022-09-10T11:04:50.327Z,24.06
2022-09-10T11:07:34.855Z,23.48
2022-09-10T11:10:19.699Z,22.67
2022-09-10T11:13:09.356Z,23.55
2022-09-10T11:15:43.759Z,22.53
2022-09-10T11:18:21.259Z,22.72
2022-09-10T11:21:12.509Z,23.35
2022-09-10T11:24:34.290Z,23.42
2022-09-10T11:27:00.837Z,23.97
2022-09-10T11:29:49.905Z,23.05
2022-09-10T11:32:27.052Z,22.66
2022-09-10T11:35:15.045Z,22.97
2022-09-10T11:37:51.819Z,23.48
2022-09-10T11:40:35.318Z,23.10
2022-09-10T11:43:19.780Z,22.85
2022-09-10T11:45:53.329Z,22.01
2022-09-10T11:48:47.093Z,21.91
2022-09-10T11:51:26.408Z,21.47
2022-09-10T11:53:55.338Z,21.43
2022-09-10T11:56:23.166Z,21.76
2022-09-10T11:59:27.667Z,21.76
2022-09-10T12:02:16.433Z,22.99
2022-09-10T12:05:18.422Z,23.48
2022-09-10T12:07:59.699Z,23.43
2022-09-10T12:10:39.999Z,24.06
2022-09-10T12:13:13.269Z,24.24
2022-09-10T12:15:40.078Z,24.62
2022-09-10T12:18:23.085Z,24.77
2022-09-10T12:21:08.455Z,24.79
2022-09-10T12:23:41.780Z,24.87
2022-09-10T12:26:08.364Z,24.90
2022-09-10T12:28:43.676Z,24.65
2022-09-10T12:31:28.782Z,23.79
2022-09-10T12:33:57.691Z,23.35
2022-09-10T12:36:27.282Z,23.27
2022-09-10T12:39:26.466Z,23.27
2022-09-10T12:42:23.328Z,23.61
2022-09-10T12:44:50.243Z,23.89
2022-09-10T12:47:16.789Z,23.46
2022-09-10T12:50:00.998Z,22.81
2022-09-10T12:53:19.323Z,22.58
2022-09-10T12:56:02.179Z,23.13
2022-09-10T12:58:44.068Z,23.01
2022-09-10T13:01:28.700Z,23.45
2022-09-10T13:04:02.505Z,23.62
2022-09-10T13:06:41.801Z,23.63
2022-09-10T13:09:22.688Z,24.01
2022-09-10T13:11:54.292Z,24.32
2022-09-10T13:14:23.735Z,24.24
2022-09-10T13:16:50.426Z,24.40
2022-09-10T13:19:18.596Z,24.54
2022-09-10T13:21:45.183Z,24.27
2022-09-10T13:24:33.855Z,23.53
2022-09-10T13:27:12.874Z,22.93
2022-09-10T13:30:19.636Z,22.58
2022-09-10T13:33:05.473Z,22.25
2022-09-10T13:36:07.271Z,21.68
2022-09-10T13:38:54.536Z,21.54
2022-09-10T13:41:44.945Z,21.52
2022-09-10T13:44:20.685Z,21.24
2022-09-10T13:47:03.352Z,21.22
2022-09-10T13:49:55.610Z,21.23
2022-09-10T13:52:29.168Z,20.98
2022-09-10T13:54:58.330Z,20.83
2022-09-10T13:57:26.764Z,21.01
2022-09-10T14:00:10.640Z,21.08
2022-09-10T14:02:48.016Z,21.96
2022-09-10T14:05:29.834Z,22.70
2022-09-10T14:07:57.424Z,22.82
2022-09-10T14:10:24.370Z,23.02
2022-09-10T14:12:53.262Z,22.98
2022-09-10T14:15:25.865Z,23.13
2022-09-10T14:17:57.429Z,23.21
2022-09-10T14:20:28.565Z,23.71
2022-09-10T14:23:13.711Z,23.40
2022-09-10T14:25:42.573Z,23.53
2022-09-10T14:28:27.241Z,23.55
2022-09-10T14:31:20.822Z,23.70
2022-09-10T14:33:47.722Z,23.53
2022-09-10T14:36:16.323Z,23.35
2022-09-10T14:38:45.432Z,23.15
2022-09-10T14:41:24.946Z,23.08
2022-09-10T14:44:23.203Z,22.83
2022-09-10T14:46:59.965Z,22.83
2022-09-10T14:49:33.032Z,22.88
2022-09-10T14:52:01.585Z,22.72
2022-09-10T14:54:29.847Z,22.06
2022-09-10T14:56:58.089Z,22.20
2022-09-10T14:59:29.739Z,22.28
2022-09-10T15:01:57.104Z,22.20
2022-09-10T15:04:28.633Z,21.84
2022-09-10T15:06:59.989Z,21.59
2022-09-10T15:09:28.492Z,21.58
2022-09-10T15:12:03.795Z,21.35
2022-09-10T15:14:31.837Z,21.38
2022-09-10T15:16:58.549Z,21.08
2022-09-10T15:19:25.217Z,21.12
2022-09-10T15:21:51.942Z,21.10
2022-09-10T15:24:21.495Z,20.92
2022-09-10T15:26:48.590Z,20.93
2022-09-10T15:29:16.299Z,20.60
2022-09-10T15:31:43.791Z,20.69
2022-09-10T15:34:11.214Z,20.53
2022-09-10T15:36:40.009Z,20.56
2022-09-10T15:39:08.383Z,20.63
2022-09-10T15:41:35.031Z,20.39
2022-09-10T15:44:02.882Z,20.19
2022-09-10T15:46:29.770Z,20.26
2022-09-10T15:48:58.752Z,20.22
2022-09-10T15:51:25.709Z,20.38
2022-09-10T15:53:55.134Z,20.16
2022-09-10T15:56:24.888Z,19.98
2022-09-10T15:58:55.109Z,20.13
2022-09-10T16:01:22.824Z,20.13
2022-09-10T16:03:52.041Z,19.98
2022-09-10T16:06:19.807Z,19.69
2022-09-10T16:08:57.318Z,19.53
2022-09-10T16:11:25.297Z,19.39
2022-09-10T16:13:52.513Z,19.22
2022-09-10T16:16:21.637Z,19.12
2022-09-10T16:18:51.357Z,18.93
2022-09-10T16:21:22.411Z,18.91
2022-09-10T16:23:51.244Z,18.86
2022-09-10T16:26:21.098Z,18.73
2022-09-10T16:29:02.160Z,18.65
2022-09-10T16:31:34.770Z,18.66
2022-09-10T16:34:04.746Z,18.58
2022-09-10T16:36:36.973Z,18.49
2022-09-10T16:39:07.198Z,18.41
2022-09-10T16:41:33.885Z,18.34
2022-09-10T16:44:00.694Z,18.33
2022-09-10T16:46:28.379Z,18.35
2022-09-10T16:48:56.087Z,18.32
2022-09-10T16:51:24.991Z,18.28
2022-09-10T16:53:56.804Z,18.24
2022-09-10T16:56:25.344Z,18.16
2022-09-10T16:58:52.091Z,18.08
2022-09-10T17:01:20.868Z,17.98
2022-09-10T17:03:52.168Z,17.91
2022-09-10T17:06:21.802Z,17.82
2022-09-10T17:08:49.081Z,17.74
2022-09-10T17:11:18.157Z,17.70
2022-09-10T17:13:46.311Z,17.61
2022-09-10T17:16:16.797Z,17.54
2022-09-10T17:18:47.397Z,17.46
2022-09-10T17:21:18.333Z,17.36
2022-09-10T17:23:46.074Z,17.25
2022-09-10T17:26:12.835Z,17.14
2022-09-10T17:28:40.436Z,17.08
2022-09-10T17:31:07.296Z,16.98
2022-09-10T17:33:34.073Z,16.90
2022-09-10T17:36:02.609Z,16.79
2022-09-10T17:38:30.743Z,16.69
2022-09-10T17:41:00.141Z,16.60
2022-09-10T17:43:28.205Z,16.50
2022-09-10T17:45:55.721Z,16.43
2022-09-10T17:48:26.375Z,16.35
2022-09-10T17:50:54.983Z,16.26
2022-09-10T17:53:21.567Z,16.22
2022-09-10T17:55:48.229Z,16.16
2022-09-10T17:58:16.169Z,16.09
2022-09-10T18:00:49.830Z,16.03
2022-09-10T18:03:17.715Z,15.97
2022-09-10T18:05:45.886Z,15.93
2022-09-10T18:08:13.301Z,15.92
2022-09-10T18:10:40.317Z,15.90
2022-09-10T18:13:08.181Z,15.84
2022-09-10T18:15:40.309Z,15.80
2022-09-10T18:18:06.968Z,15.79
2022-09-10T18:20:33.669Z,15.77
2022-09-10T18:23:01.024Z,15.74
2022-09-10T18:25:32.341Z,15.69
2022-09-10T18:28:01.562Z,15.65
2022-09-10T18:30:29.109Z,15.66
2022-09-10T18:32:55.717Z,15.61
2022-09-10T18:35:23.180Z,15.60
2022-09-10T18:37:51.770Z,15.55
2022-09-10T18:40:19.721Z,15.52
2022-09-10T18:42:49.465Z,15.47
2022-09-10T18:45:17.331Z,15.43
2022-09-10T18:47:45.269Z,15.40
2022-09-10T18:50:13.360Z,15.37
2022-09-10T18:52:40.116Z,15.36
2022-09-10T18:55:07.097Z,15.31
2022-09-10T18:57:33.772Z,15.29
2022-09-10T19:00:00.515Z,15.24
2022-09-10T19:02:27.271Z,15.22
2022-09-10T19:05:10.780Z,15.24
2022-09-10T19:07:38.749Z,15.26
2022-09-10T19:10:07.283Z,15.26
2022-09-10T19:12:34.070Z,15.22
2022-09-10T19:15:00.669Z,15.21
2022-09-10T19:17:27.290Z,15.20
2022-09-10T19:19:53.889Z,15.17
2022-09-10T19:22:20.493Z,15.15
2022-09-10T19:24:55.731Z,15.08
2022-09-10T19:27:24.269Z,15.06
2022-09-10T19:29:51.832Z,15.01
2022-09-10T19:32:20.128Z,14.94
2022-09-10T19:34:50.005Z,14.91
2022-09-10T19:37:17.336Z,14.83
2022-09-10T19:39:44.583Z,14.80
2022-09-10T19:42:11.674Z,14.76
2022-09-10T19:44:38.303Z,14.75
2022-09-10T19:47:04.876Z,14.70
2022-09-10T19:49:31.821Z,14.67
2022-09-10T19:51:58.436Z,14.64
2022-09-10T19:54:25.759Z,14.61
2022-09-10T19:56:52.649Z,14.58
2022-09-10T19:59:19.280Z,14.56
2022-09-10T20:01:46.289Z,14.52
2022-09-10T20:04:14.130Z,14.49
2022-09-10T20:06:42.532Z,14.46
2022-09-10T20:09:12.696Z,14.41
2022-09-10T20:11:39.313Z,14.36
2022-09-10T20:14:12.953Z,14.32
2022-09-10T20:16:42.513Z,14.29
2022-09-10T20:19:11.789Z,14.27
2022-09-10T20:21:38.496Z,14.22
2022-09-10T20:24:07.266Z,14.16
2022-09-10T20:26:38.265Z,14.14
2022-09-10T20:29:09.596Z,14.10
2022-09-10T20:31:37.286Z,14.06
2022-09-10T20:34:07.027Z,14.03
2022-09-10T20:36:35.760Z,13.98
2022-09-10T20:39:03.047Z,13.92
2022-09-10T20:41:32.825Z,13.87
2022-09-10T20:44:01.077Z,13.84
2022-09-10T20:46:29.995Z,13.81
2022-09-10T20:49:05.145Z,13.77
2022-09-10T20:51:36.500Z,13.73
2022-09-10T20:54:04.791Z,13.73
2022-09-10T20:56:31.688Z,13.70
2022-09-10T20:58:58.710Z,13.67
2022-09-10T21:01:27.513Z,13.63
2022-09-10T21:03:58.004Z,13.62
2022-09-10T21:06:28.271Z,13.67
2022-09-10T21:08:57.874Z,13.64
2022-09-10T21:11:27.417Z,13.57
2022-09-10T21:13:56.040Z,13.50
2022-09-10T21:16:31.868Z,13.44
2022-09-10T21:19:01.809Z,13.40
2022-09-10T21:21:30.831Z,13.42
2022-09-10T21:24:05.345Z,13.42
2022-09-10T21:26:35.416Z,13.36
2022-09-10T21:29:04.147Z,13.34
2022-09-10T21:31:31.403Z,13.34
2022-09-10T21:34:03.121Z,13.33
2022-09-10T21:36:31.528Z,13.29
2022-09-10T21:39:00.526Z,13.27
2022-09-10T21:41:31.204Z,13.27
2022-09-10T21:43:59.152Z,13.28
2022-09-10T21:46:26.405Z,13.29
2022-09-10T21:48:53.365Z,13.32
2022-09-10T21:51:21.048Z,13.30
2022-09-10T21:53:51.680Z,13.29
2022-09-10T21:56:18.506Z,13.22
2022-09-10T21:58:45.999Z,13.20
2022-09-10T22:01:18.958Z,13.21
2022-09-10T22:03:47.483Z,13.18
2022-09-10T22:06:25.523Z,13.18
2022-09-10T22:08:55.244Z,13.14
2022-09-10T22:11:24.833Z,13.10
2022-09-10T22:13:54.140Z,13.10
2022-09-10T22:16:22.738Z,13.10
2022-09-10T22:18:50.290Z,13.10
2022-09-10T22:21:17.643Z,13.10
2022-09-10T22:23:44.754Z,13.11
2022-09-10T22:26:16.644Z,13.14
2022-09-10T22:28:43.403Z,13.15
2022-09-10T22:31:21.836Z,13.20
2022-09-10T22:33:59.685Z,13.27
2022-09-10T22:36:31.553Z,13.30
2022-09-10T22:39:14.159Z,13.28
2022-09-10T22:41:41.715Z,13.27
2022-09-10T22:44:09.089Z,13.29
2022-09-10T22:46:37.154Z,13.33
2022-09-10T22:49:05.178Z,13.39
2022-09-10T22:51:37.728Z,13.41
2022-09-10T22:54:06.286Z,13.48
2022-09-10T22:56:35.841Z,13.54
2022-09-10T22:59:03.998Z,13.61
2022-09-10T23:01:35.545Z,13.60
2022-09-10T23:04:03.817Z,13.60
2022-09-10T23:06:32.830Z,13.66
2022-09-10T23:09:09.312Z,13.68
2022-09-10T23:11:37.462Z,13.70
2022-09-10T23:14:11.291Z,13.72
2022-09-10T23:16:41.657Z,13.76
2022-09-10T23:19:12.926Z,13.73
2022-09-10T23:21:43.050Z,13.75
2022-09-10T23:24:13.202Z,13.73
2022-09-10T23:26:40.508Z,13.75
2022-09-10T23:29:07.565Z,13.69
2022-09-10T23:31:36.993Z,13.68
2022-09-10T23:34:11.652Z,13.66
2022-09-10T23:36:41.107Z,13.67
2022-09-10T23:39:20.360Z,13.66
2022-09-10T23:41:48.683Z,13.67
2022-09-10T23:44:16.105Z,13.66
2022-09-10T23:46:43.257Z,13.68
2022-09-10T23:49:10.220Z,13.73
2022-09-10T23:51:37.144Z,13.74
2022-09-10T23:54:04.257Z,13.79
2022-09-10T23:56:31.976Z,13.80
2022-09-10T23:59:01.573Z,13.80
